Mounds, Oklahoma
Current Conditions -  °F | °C
As of 5:53 AM on Sunday 21 Dec 2014 (Local Time) from KRVS Reporting Station
Overcast Overcast  
Wind Chill: 39°   Ceiling: 600
Heat Index: 43°   Visibility: 9mi
Dew Point: 41°   Wind: 6mph
Humidity: 93%   Direction: 180°S
Pressure: 30.09"   Gusts: NA
Location:  35.88°N, 96.06°W
Report Text: KRVS 211153Z AUTO 18005KT 9SM OVC006 06/05 A3009 RMK AO2 CIG 005V011 SLP196 T00610050 10061 20056 56016
Loading
Personal Weather Stations






























Interactive Weather Map New forecast layout! Learn more

10-Day Weather Forecast

Advertisements
Track Severe Weather on mobile